Terminal Aerodrome Forecast
Issued by NWS Tampa Bay Area, FL

Home | Current Version | Previous Version | Text Only | Print | Product List | Glossary On
Versions: 1 2 3 4 5 6 7 8 9 10 11 12
561
FTUS42 KTBW 112338
TAFFMY
TAF
KFMY 112338Z 1200/1224 VRB02KT P6SM SKC
     FM121400 VRB06KT P6SM SKC
     FM121800 26008KT P6SM SKC=

USA.gov is the U.S. government's official web portal to all federal, state and local government web resources and services.